sensor_id;sensor_type;location;lat;lon;timestamp;temperature;humidity
14614;DHT22;7393;51.446;6.800;2023-02-03T00:00:24;9.00;1.00
14614;DHT22;7393;51.446;6.800;2023-02-03T00:02:53;9.00;1.00
14614;DHT22;7393;51.446;6.800;2023-02-03T00:05:20;9.00;1.00
14614;DHT22;7393;51.446;6.800;2023-02-03T00:07:49;8.90;1.00
14614;DHT22;7393;51.446;6.800;2023-02-03T00:10:16;8.90;1.00
14614;DHT22;7393;51.446;6.800;2023-02-03T00:12:46;8.90;1.00
14614;DHT22;7393;51.446;6.800;2023-02-03T00:15:13;9.00;1.00
14614;DHT22;7393;51.446;6.800;2023-02-03T00:17:39;8.90;1.00
14614;DHT22;7393;51.446;6.800;2023-02-03T00:20:07;8.90;1.00
14614;DHT22;7393;51.446;6.800;2023-02-03T00:22:34;8.90;1.00
14614;DHT22;7393;51.446;6.800;2023-02-03T00:25:02;9.00;1.00
14614;DHT22;7393;51.446;6.800;2023-02-03T00:27:30;8.90;1.00
14614;DHT22;7393;51.446;6.800;2023-02-03T00:29:57;9.00;1.00
14614;DHT22;7393;51.446;6.800;2023-02-03T00:32:24;9.00;1.00
14614;DHT22;7393;51.446;6.800;2023-02-03T00:34:50;9.00;1.00
14614;DHT22;7393;51.446;6.800;2023-02-03T00:37:17;9.00;1.00
14614;DHT22;7393;51.446;6.800;2023-02-03T00:39:44;9.00;1.00
14614;DHT22;7393;51.446;6.800;2023-02-03T00:42:12;9.00;1.00
14614;DHT22;7393;51.446;6.800;2023-02-03T00:44:39;9.00;1.00
14614;DHT22;7393;51.446;6.800;2023-02-03T00:47:05;9.00;1.00
14614;DHT22;7393;51.446;6.800;2023-02-03T00:49:33;9.00;1.00
14614;DHT22;7393;51.446;6.800;2023-02-03T00:51:59;9.00;1.00
14614;DHT22;7393;51.446;6.800;2023-02-03T00:54:26;9.00;1.00
14614;DHT22;7393;51.446;6.800;2023-02-03T00:56:53;9.00;1.00
14614;DHT22;7393;51.446;6.800;2023-02-03T00:59:21;9.10;1.00
14614;DHT22;7393;51.446;6.800;2023-02-03T01:01:47;9.10;1.00
14614;DHT22;7393;51.446;6.800;2023-02-03T01:04:15;9.00;1.00
14614;DHT22;7393;51.446;6.800;2023-02-03T01:06:42;9.10;1.00
14614;DHT22;7393;51.446;6.800;2023-02-03T01:09:09;9.10;1.00
14614;DHT22;7393;51.446;6.800;2023-02-03T01:11:35;9.10;1.00
14614;DHT22;7393;51.446;6.800;2023-02-03T01:14:02;9.10;1.00
14614;DHT22;7393;51.446;6.800;2023-02-03T01:16:30;9.10;1.00
14614;DHT22;7393;51.446;6.800;2023-02-03T01:19:00;9.00;1.00
14614;DHT22;7393;51.446;6.800;2023-02-03T01:21:27;9.00;1.00
14614;DHT22;7393;51.446;6.800;2023-02-03T01:23:54;9.00;1.00
14614;DHT22;7393;51.446;6.800;2023-02-03T01:26:23;9.00;1.00
14614;DHT22;7393;51.446;6.800;2023-02-03T01:28:51;9.00;1.00
14614;DHT22;7393;51.446;6.800;2023-02-03T01:31:20;9.10;1.00
14614;DHT22;7393;51.446;6.800;2023-02-03T01:33:50;9.10;1.00
14614;DHT22;7393;51.446;6.800;2023-02-03T01:36:19;9.10;1.00
14614;DHT22;7393;51.446;6.800;2023-02-03T01:38:46;9.10;1.00
14614;DHT22;7393;51.446;6.800;2023-02-03T01:41:14;9.10;1.00
14614;DHT22;7393;51.446;6.800;2023-02-03T01:43:43;9.10;1.00
14614;DHT22;7393;51.446;6.800;2023-02-03T01:46:21;9.10;1.00
14614;DHT22;7393;51.446;6.800;2023-02-03T01:48:52;9.10;1.00
14614;DHT22;7393;51.446;6.800;2023-02-03T01:51:20;9.10;1.00
14614;DHT22;7393;51.446;6.800;2023-02-03T01:53:48;9.10;1.00
14614;DHT22;7393;51.446;6.800;2023-02-03T01:56:15;9.10;1.00
14614;DHT22;7393;51.446;6.800;2023-02-03T01:58:44;9.10;1.00
14614;DHT22;7393;51.446;6.800;2023-02-03T02:01:12;9.00;1.00
14614;DHT22;7393;51.446;6.800;2023-02-03T02:03:41;9.10;1.00
14614;DHT22;7393;51.446;6.800;2023-02-03T02:06:12;9.00;1.00
14614;DHT22;7393;51.446;6.800;2023-02-03T02:08:41;9.00;1.00
14614;DHT22;7393;51.446;6.800;2023-02-03T02:11:08;9.10;1.00
14614;DHT22;7393;51.446;6.800;2023-02-03T02:13:35;9.10;1.00
14614;DHT22;7393;51.446;6.800;2023-02-03T02:16:09;9.20;1.00
14614;DHT22;7393;51.446;6.800;2023-02-03T02:18:46;9.20;1.00
14614;DHT22;7393;51.446;6.800;2023-02-03T02:21:38;9.20;1.00
14614;DHT22;7393;51.446;6.800;2023-02-03T02:24:48;9.20;1.00
14614;DHT22;7393;51.446;6.800;2023-02-03T02:27:48;9.20;1.00
14614;DHT22;7393;51.446;6.800;2023-02-03T02:30:42;9.20;1.00
14614;DHT22;7393;51.446;6.800;2023-02-03T02:33:18;9.10;1.00
14614;DHT22;7393;51.446;6.800;2023-02-03T02:35:56;9.10;1.00
14614;DHT22;7393;51.446;6.800;2023-02-03T02:38:34;9.20;1.00
14614;DHT22;7393;51.446;6.800;2023-02-03T02:41:06;9.10;1.00
14614;DHT22;7393;51.446;6.800;2023-02-03T02:43:40;9.10;1.00
14614;DHT22;7393;51.446;6.800;2023-02-03T02:46:10;9.10;1.00
14614;DHT22;7393;51.446;6.800;2023-02-03T02:48:44;9.20;1.00
14614;DHT22;7393;51.446;6.800;2023-02-03T02:51:13;9.20;1.00
14614;DHT22;7393;51.446;6.800;2023-02-03T02:53:44;9.10;1.00
14614;DHT22;7393;51.446;6.800;2023-02-03T02:56:13;9.10;1.00
14614;DHT22;7393;51.446;6.800;2023-02-03T02:58:43;9.10;1.00
14614;DHT22;7393;51.446;6.800;2023-02-03T03:01:13;9.10;1.00
14614;DHT22;7393;51.446;6.800;2023-02-03T03:03:43;9.10;1.00
14614;DHT22;7393;51.446;6.800;2023-02-03T03:06:13;9.10;1.00
14614;DHT22;7393;51.446;6.800;2023-02-03T03:08:42;9.10;1.00
14614;DHT22;7393;51.446;6.800;2023-02-03T03:11:11;9.10;1.00
14614;DHT22;7393;51.446;6.800;2023-02-03T03:13:41;9.20;99.90
14614;DHT22;7393;51.446;6.800;2023-02-03T03:16:10;9.10;1.00
14614;DHT22;7393;51.446;6.800;2023-02-03T03:18:43;9.10;1.00
14614;DHT22;7393;51.446;6.800;2023-02-03T03:21:13;9.10;1.00
14614;DHT22;7393;51.446;6.800;2023-02-03T03:23:45;9.10;1.00
14614;DHT22;7393;51.446;6.800;2023-02-03T03:26:15;9.20;99.90
14614;DHT22;7393;51.446;6.800;2023-02-03T03:28:46;9.10;1.00
14614;DHT22;7393;51.446;6.800;2023-02-03T03:31:14;9.10;99.90
14614;DHT22;7393;51.446;6.800;2023-02-03T03:33:43;9.10;99.90
14614;DHT22;7393;51.446;6.800;2023-02-03T03:36:17;9.10;99.90
14614;DHT22;7393;51.446;6.800;2023-02-03T03:38:51;9.20;99.90
14614;DHT22;7393;51.446;6.800;2023-02-03T03:41:26;9.20;99.90
14614;DHT22;7393;51.446;6.800;2023-02-03T03:43:57;9.20;99.90
14614;DHT22;7393;51.446;6.800;2023-02-03T03:46:29;9.20;99.90
14614;DHT22;7393;51.446;6.800;2023-02-03T03:49:01;9.20;99.90
14614;DHT22;7393;51.446;6.800;2023-02-03T03:51:33;9.20;99.90
14614;DHT22;7393;51.446;6.800;2023-02-03T03:54:03;9.20;99.90
14614;DHT22;7393;51.446;6.800;2023-02-03T03:56:34;9.20;99.90
14614;DHT22;7393;51.446;6.800;2023-02-03T03:59:03;9.20;99.90
14614;DHT22;7393;51.446;6.800;2023-02-03T04:01:31;9.20;99.90
14614;DHT22;7393;51.446;6.800;2023-02-03T04:04:02;9.20;99.90
14614;DHT22;7393;51.446;6.800;2023-02-03T04:06:31;9.20;99.90
14614;DHT22;7393;51.446;6.800;2023-02-03T04:08:58;9.20;99.90
14614;DHT22;7393;51.446;6.800;2023-02-03T04:11:26;9.10;99.90
14614;DHT22;7393;51.446;6.800;2023-02-03T04:14:10;9.10;99.90
14614;DHT22;7393;51.446;6.800;2023-02-03T04:16:37;9.20;99.90
14614;DHT22;7393;51.446;6.800;2023-02-03T04:19:05;9.20;99.90
14614;DHT22;7393;51.446;6.800;2023-02-03T04:21:32;9.20;99.90
14614;DHT22;7393;51.446;6.800;2023-02-03T04:23:59;9.20;99.90
14614;DHT22;7393;51.446;6.800;2023-02-03T04:26:26;9.20;99.90
14614;DHT22;7393;51.446;6.800;2023-02-03T04:28:52;9.20;99.90
14614;DHT22;7393;51.446;6.800;2023-02-03T04:31:19;9.20;99.90
14614;DHT22;7393;51.446;6.800;2023-02-03T04:33:46;9.20;99.90
14614;DHT22;7393;51.446;6.800;2023-02-03T04:36:14;9.20;99.90
14614;DHT22;7393;51.446;6.800;2023-02-03T04:38:41;9.20;99.90
14614;DHT22;7393;51.446;6.800;2023-02-03T04:41:07;9.20;99.90
14614;DHT22;7393;51.446;6.800;2023-02-03T04:43:34;9.20;99.90
14614;DHT22;7393;51.446;6.800;2023-02-03T04:46:01;9.20;99.90
14614;DHT22;7393;51.446;6.800;2023-02-03T04:48:28;9.30;99.90
14614;DHT22;7393;51.446;6.800;2023-02-03T04:50:54;9.30;99.90
14614;DHT22;7393;51.446;6.800;2023-02-03T04:53:27;9.30;99.90
14614;DHT22;7393;51.446;6.800;2023-02-03T04:55:54;9.30;42.00
14614;DHT22;7393;51.446;6.800;2023-02-03T04:58:21;9.30;99.90
14614;DHT22;7393;51.446;6.800;2023-02-03T05:00:47;9.30;99.90
14614;DHT22;7393;51.446;6.800;2023-02-03T05:03:14;9.30;42.50
14614;DHT22;7393;51.446;6.800;2023-02-03T05:05:41;9.30;21.30
14614;DHT22;7393;51.446;6.800;2023-02-03T05:08:08;9.30;99.90
14614;DHT22;7393;51.446;6.800;2023-02-03T05:10:36;9.20;99.90
14614;DHT22;7393;51.446;6.800;2023-02-03T05:13:03;9.20;99.90
14614;DHT22;7393;51.446;6.800;2023-02-03T05:15:29;9.20;99.90
14614;DHT22;7393;51.446;6.800;2023-02-03T05:17:56;9.20;99.90
14614;DHT22;7393;51.446;6.800;2023-02-03T05:20:23;9.20;99.90
14614;DHT22;7393;51.446;6.800;2023-02-03T05:22:49;9.20;99.90
14614;DHT22;7393;51.446;6.800;2023-02-03T05:25:16;9.20;99.90
14614;DHT22;7393;51.446;6.800;2023-02-03T05:27:44;9.20;99.90
14614;DHT22;7393;51.446;6.800;2023-02-03T05:30:11;9.20;99.90
14614;DHT22;7393;51.446;6.800;2023-02-03T05:32:38;9.20;94.60
14614;DHT22;7393;51.446;6.800;2023-02-03T05:35:06;9.20;99.90
14614;DHT22;7393;51.446;6.800;2023-02-03T05:37:33;9.20;99.90
14614;DHT22;7393;51.446;6.800;2023-02-03T05:39:59;9.30;1.00
14614;DHT22;7393;51.446;6.800;2023-02-03T05:42:46;9.30;1.00
14614;DHT22;7393;51.446;6.800;2023-02-03T05:45:13;9.30;1.00
14614;DHT22;7393;51.446;6.800;2023-02-03T05:47:40;9.30;1.00
14614;DHT22;7393;51.446;6.800;2023-02-03T05:50:07;9.30;1.00
14614;DHT22;7393;51.446;6.800;2023-02-03T05:52:34;9.30;1.00
14614;DHT22;7393;51.446;6.800;2023-02-03T05:55:01;9.30;1.00
14614;DHT22;7393;51.446;6.800;2023-02-03T05:57:27;9.30;1.00
14614;DHT22;7393;51.446;6.800;2023-02-03T05:59:55;9.30;1.00
14614;DHT22;7393;51.446;6.800;2023-02-03T06:02:22;9.30;1.00
14614;DHT22;7393;51.446;6.800;2023-02-03T06:04:49;9.30;1.00
14614;DHT22;7393;51.446;6.800;2023-02-03T06:07:16;9.30;1.00
14614;DHT22;7393;51.446;6.800;2023-02-03T06:09:42;9.30;1.00
14614;DHT22;7393;51.446;6.800;2023-02-03T06:12:09;9.40;1.00
14614;DHT22;7393;51.446;6.800;2023-02-03T06:14:36;9.30;1.00
14614;DHT22;7393;51.446;6.800;2023-02-03T06:17:04;9.30;1.00
14614;DHT22;7393;51.446;6.800;2023-02-03T06:19:31;9.30;1.00
14614;DHT22;7393;51.446;6.800;2023-02-03T06:21:57;9.30;1.00
14614;DHT22;7393;51.446;6.800;2023-02-03T06:24:24;9.30;1.00
14614;DHT22;7393;51.446;6.800;2023-02-03T06:26:51;9.40;1.00
14614;DHT22;7393;51.446;6.800;2023-02-03T06:29:18;9.40;1.00
14614;DHT22;7393;51.446;6.800;2023-02-03T06:31:44;9.40;1.00
14614;DHT22;7393;51.446;6.800;2023-02-03T06:34:13;9.40;1.00
14614;DHT22;7393;51.446;6.800;2023-02-03T06:36:39;9.40;1.00
14614;DHT22;7393;51.446;6.800;2023-02-03T06:39:06;9.40;99.90
14614;DHT22;7393;51.446;6.800;2023-02-03T06:41:33;9.50;99.90
14614;DHT22;7393;51.446;6.800;2023-02-03T06:44:00;9.50;99.90
14614;DHT22;7393;51.446;6.800;2023-02-03T06:46:26;9.60;99.90
14614;DHT22;7393;51.446;6.800;2023-02-03T06:48:54;9.50;99.90
14614;DHT22;7393;51.446;6.800;2023-02-03T06:51:22;9.60;1.00
14614;DHT22;7393;51.446;6.800;2023-02-03T06:53:50;9.50;99.90
14614;DHT22;7393;51.446;6.800;2023-02-03T06:56:17;9.50;99.90
14614;DHT22;7393;51.446;6.800;2023-02-03T06:58:43;9.50;99.90
14614;DHT22;7393;51.446;6.800;2023-02-03T07:01:10;9.50;99.90
14614;DHT22;7393;51.446;6.800;2023-02-03T07:03:37;9.50;99.90
14614;DHT22;7393;51.446;6.800;2023-02-03T07:06:05;9.50;99.90
14614;DHT22;7393;51.446;6.800;2023-02-03T07:08:33;9.50;99.90
14614;DHT22;7393;51.446;6.800;2023-02-03T07:10:59;9.50;99.90
14614;DHT22;7393;51.446;6.800;2023-02-03T07:13:26;9.50;99.90
14614;DHT22;7393;51.446;6.800;2023-02-03T07:15:53;9.50;99.90
14614;DHT22;7393;51.446;6.800;2023-02-03T07:18:20;9.50;99.90
14614;DHT22;7393;51.446;6.800;2023-02-03T07:20:49;9.50;99.90
14614;DHT22;7393;51.446;6.800;2023-02-03T07:23:16;9.50;99.90
14614;DHT22;7393;51.446;6.800;2023-02-03T07:25:44;9.50;99.90
14614;DHT22;7393;51.446;6.800;2023-02-03T07:28:11;9.40;1.00
14614;DHT22;7393;51.446;6.800;2023-02-03T07:30:38;9.40;1.00
14614;DHT22;7393;51.446;6.800;2023-02-03T07:33:04;9.50;99.90
14614;DHT22;7393;51.446;6.800;2023-02-03T07:35:32;9.50;99.90
14614;DHT22;7393;51.446;6.800;2023-02-03T07:37:59;9.50;99.90
14614;DHT22;7393;51.446;6.800;2023-02-03T07:40:26;9.60;1.00
14614;DHT22;7393;51.446;6.800;2023-02-03T07:42:54;9.60;17.30
14614;DHT22;7393;51.446;6.800;2023-02-03T07:45:21;9.60;99.90
14614;DHT22;7393;51.446;6.800;2023-02-03T07:47:49;9.50;46.90
14614;DHT22;7393;51.446;6.800;2023-02-03T07:50:16;9.50;99.90
14614;DHT22;7393;51.446;6.800;2023-02-03T07:52:43;9.60;34.10
14614;DHT22;7393;51.446;6.800;2023-02-03T07:55:10;9.60;1.00
14614;DHT22;7393;51.446;6.800;2023-02-03T07:57:36;9.60;51.10
14614;DHT22;7393;51.446;6.800;2023-02-03T08:00:11;9.50;33.70
14614;DHT22;7393;51.446;6.800;2023-02-03T08:02:39;9.60;1.00
14614;DHT22;7393;51.446;6.800;2023-02-03T08:05:06;9.50;99.90
14614;DHT22;7393;51.446;6.800;2023-02-03T08:07:33;9.50;99.90
14614;DHT22;7393;51.446;6.800;2023-02-03T08:10:00;9.50;99.90
14614;DHT22;7393;51.446;6.800;2023-02-03T08:12:26;9.50;99.90
14614;DHT22;7393;51.446;6.800;2023-02-03T08:14:54;9.50;99.90
14614;DHT22;7393;51.446;6.800;2023-02-03T08:17:22;9.60;1.00
14614;DHT22;7393;51.446;6.800;2023-02-03T08:19:49;9.60;1.00
14614;DHT22;7393;51.446;6.800;2023-02-03T08:22:16;9.60;17.30
14614;DHT22;7393;51.446;6.800;2023-02-03T08:24:44;9.60;1.00
14614;DHT22;7393;51.446;6.800;2023-02-03T08:27:11;9.50;99.90
14614;DHT22;7393;51.446;6.800;2023-02-03T08:29:38;9.60;99.90
14614;DHT22;7393;51.446;6.800;2023-02-03T08:32:08;9.60;99.90
14614;DHT22;7393;51.446;6.800;2023-02-03T08:34:37;9.60;99.90
14614;DHT22;7393;51.446;6.800;2023-02-03T08:37:04;9.60;18.70
14614;DHT22;7393;51.446;6.800;2023-02-03T08:39:32;9.60;99.90
14614;DHT22;7393;51.446;6.800;2023-02-03T08:42:00;9.60;99.90
14614;DHT22;7393;51.446;6.800;2023-02-03T08:44:28;9.60;99.90
14614;DHT22;7393;51.446;6.800;2023-02-03T08:46:55;9.60;99.90
14614;DHT22;7393;51.446;6.800;2023-02-03T08:49:24;9.60;99.90
14614;DHT22;7393;51.446;6.800;2023-02-03T08:51:53;9.60;99.90
14614;DHT22;7393;51.446;6.800;2023-02-03T08:54:21;9.60;99.90
14614;DHT22;7393;51.446;6.800;2023-02-03T08:56:48;9.60;99.90
14614;DHT22;7393;51.446;6.800;2023-02-03T08:59:15;9.60;99.90
14614;DHT22;7393;51.446;6.800;2023-02-03T09:01:42;9.70;1.00
14614;DHT22;7393;51.446;6.800;2023-02-03T09:04:10;9.70;99.90
14614;DHT22;7393;51.446;6.800;2023-02-03T09:06:37;9.70;99.90
14614;DHT22;7393;51.446;6.800;2023-02-03T09:09:06;9.70;99.90
14614;DHT22;7393;51.446;6.800;2023-02-03T09:11:32;9.70;99.90
14614;DHT22;7393;51.446;6.800;2023-02-03T09:13:59;9.70;99.90
14614;DHT22;7393;51.446;6.800;2023-02-03T09:16:26;9.60;1.00
14614;DHT22;7393;51.446;6.800;2023-02-03T09:18:53;9.70;1.00
14614;DHT22;7393;51.446;6.800;2023-02-03T09:21:19;9.70;99.90
14614;DHT22;7393;51.446;6.800;2023-02-03T09:23:46;9.70;99.90
14614;DHT22;7393;51.446;6.800;2023-02-03T09:26:14;9.70;1.00
14614;DHT22;7393;51.446;6.800;2023-02-03T09:28:41;9.70;99.90
14614;DHT22;7393;51.446;6.800;2023-02-03T09:31:10;9.70;1.00
14614;DHT22;7393;51.446;6.800;2023-02-03T09:33:37;9.70;1.00
14614;DHT22;7393;51.446;6.800;2023-02-03T09:36:05;9.80;1.00
14614;DHT22;7393;51.446;6.800;2023-02-03T09:38:33;9.70;1.00
14614;DHT22;7393;51.446;6.800;2023-02-03T09:41:02;9.70;1.00
14614;DHT22;7393;51.446;6.800;2023-02-03T09:43:36;9.70;1.00
14614;DHT22;7393;51.446;6.800;2023-02-03T09:46:07;9.80;1.00
14614;DHT22;7393;51.446;6.800;2023-02-03T09:48:40;9.70;1.00
14614;DHT22;7393;51.446;6.800;2023-02-03T09:51:18;9.70;1.00
14614;DHT22;7393;51.446;6.800;2023-02-03T09:53:49;9.70;1.00
14614;DHT22;7393;51.446;6.800;2023-02-03T09:56:21;9.80;1.00
14614;DHT22;7393;51.446;6.800;2023-02-03T09:58:50;9.80;1.00
14614;DHT22;7393;51.446;6.800;2023-02-03T10:01:17;9.80;1.00
14614;DHT22;7393;51.446;6.800;2023-02-03T10:03:50;9.80;1.00
14614;DHT22;7393;51.446;6.800;2023-02-03T10:06:25;9.80;1.00
14614;DHT22;7393;51.446;6.800;2023-02-03T10:09:04;9.80;1.00
14614;DHT22;7393;51.446;6.800;2023-02-03T10:11:51;9.90;1.00
14614;DHT22;7393;51.446;6.800;2023-02-03T10:14:36;9.90;1.00
14614;DHT22;7393;51.446;6.800;2023-02-03T10:17:18;9.90;1.00
14614;DHT22;7393;51.446;6.800;2023-02-03T10:19:51;9.90;1.00
14614;DHT22;7393;51.446;6.800;2023-02-03T10:22:25;9.90;1.00
14614;DHT22;7393;51.446;6.800;2023-02-03T10:24:56;9.90;1.00
14614;DHT22;7393;51.446;6.800;2023-02-03T10:27:25;10.00;1.00
14614;DHT22;7393;51.446;6.800;2023-02-03T10:29:58;10.00;1.00
14614;DHT22;7393;51.446;6.800;2023-02-03T10:32:26;10.00;1.00
14614;DHT22;7393;51.446;6.800;2023-02-03T10:34:54;10.00;1.00
14614;DHT22;7393;51.446;6.800;2023-02-03T10:37:25;10.10;1.00
14614;DHT22;7393;51.446;6.800;2023-02-03T10:39:53;10.10;1.00
14614;DHT22;7393;51.446;6.800;2023-02-03T10:42:21;10.10;1.00
14614;DHT22;7393;51.446;6.800;2023-02-03T10:44:51;10.10;1.00
14614;DHT22;7393;51.446;6.800;2023-02-03T10:47:27;10.10;1.00
14614;DHT22;7393;51.446;6.800;2023-02-03T10:50:00;10.10;1.00
14614;DHT22;7393;51.446;6.800;2023-02-03T10:52:31;10.20;1.00
14614;DHT22;7393;51.446;6.800;2023-02-03T10:54:59;10.20;1.00
14614;DHT22;7393;51.446;6.800;2023-02-03T10:57:30;10.20;1.00
14614;DHT22;7393;51.446;6.800;2023-02-03T11:00:05;10.20;1.00
14614;DHT22;7393;51.446;6.800;2023-02-03T11:02:34;10.20;1.00
14614;DHT22;7393;51.446;6.800;2023-02-03T11:05:10;10.20;1.00
14614;DHT22;7393;51.446;6.800;2023-02-03T11:07:37;10.20;1.00
14614;DHT22;7393;51.446;6.800;2023-02-03T11:10:25;10.30;1.00
14614;DHT22;7393;51.446;6.800;2023-02-03T11:13:12;10.30;1.00
14614;DHT22;7393;51.446;6.800;2023-02-03T11:15:52;10.20;1.00
14614;DHT22;7393;51.446;6.800;2023-02-03T11:18:35;10.20;1.00
14614;DHT22;7393;51.446;6.800;2023-02-03T11:21:09;10.20;1.00
14614;DHT22;7393;51.446;6.800;2023-02-03T11:23:44;10.20;1.00
14614;DHT22;7393;51.446;6.800;2023-02-03T11:26:13;10.30;1.00
14614;DHT22;7393;51.446;6.800;2023-02-03T11:28:42;10.20;1.00
14614;DHT22;7393;51.446;6.800;2023-02-03T11:31:18;10.30;1.00
14614;DHT22;7393;51.446;6.800;2023-02-03T11:33:51;10.30;1.00
14614;DHT22;7393;51.446;6.800;2023-02-03T11:36:19;10.30;1.00
14614;DHT22;7393;51.446;6.800;2023-02-03T11:38:46;10.30;1.00
14614;DHT22;7393;51.446;6.800;2023-02-03T11:41:16;10.30;1.00
14614;DHT22;7393;51.446;6.800;2023-02-03T11:43:43;10.20;1.00
14614;DHT22;7393;51.446;6.800;2023-02-03T11:46:09;10.30;1.00
14614;DHT22;7393;51.446;6.800;2023-02-03T11:48:38;10.30;1.00
14614;DHT22;7393;51.446;6.800;2023-02-03T11:51:19;10.30;1.00
14614;DHT22;7393;51.446;6.800;2023-02-03T11:54:00;10.30;1.00
14614;DHT22;7393;51.446;6.800;2023-02-03T11:56:48;10.30;1.00
14614;DHT22;7393;51.446;6.800;2023-02-03T11:59:29;10.30;1.00
14614;DHT22;7393;51.446;6.800;2023-02-03T12:02:25;10.30;1.00
14614;DHT22;7393;51.446;6.800;2023-02-03T12:05:20;10.40;1.00
14614;DHT22;7393;51.446;6.800;2023-02-03T12:08:26;10.30;1.00
14614;DHT22;7393;51.446;6.800;2023-02-03T12:11:03;10.40;1.00
14614;DHT22;7393;51.446;6.800;2023-02-03T12:13:43;10.40;1.00
14614;DHT22;7393;51.446;6.800;2023-02-03T12:16:41;10.40;1.00
14614;DHT22;7393;51.446;6.800;2023-02-03T12:19:17;10.50;1.00
14614;DHT22;7393;51.446;6.800;2023-02-03T12:21:50;10.50;1.00
14614;DHT22;7393;51.446;6.800;2023-02-03T12:24:30;10.50;1.00
14614;DHT22;7393;51.446;6.800;2023-02-03T12:27:13;10.50;1.00
14614;DHT22;7393;51.446;6.800;2023-02-03T12:29:48;10.50;1.00
14614;DHT22;7393;51.446;6.800;2023-02-03T12:32:22;10.60;1.00
14614;DHT22;7393;51.446;6.800;2023-02-03T12:34:52;10.60;1.00
14614;DHT22;7393;51.446;6.800;2023-02-03T12:37:24;10.60;1.00
14614;DHT22;7393;51.446;6.800;2023-02-03T12:39:57;10.60;1.00
14614;DHT22;7393;51.446;6.800;2023-02-03T12:42:28;10.60;1.00
14614;DHT22;7393;51.446;6.800;2023-02-03T12:44:59;10.60;1.00
14614;DHT22;7393;51.446;6.800;2023-02-03T12:47:33;10.60;1.00
14614;DHT22;7393;51.446;6.800;2023-02-03T12:50:04;10.60;1.00
14614;DHT22;7393;51.446;6.800;2023-02-03T12:52:35;10.60;1.00
14614;DHT22;7393;51.446;6.800;2023-02-03T12:55:15;10.60;1.00
14614;DHT22;7393;51.446;6.800;2023-02-03T12:57:47;10.60;1.00
14614;DHT22;7393;51.446;6.800;2023-02-03T13:00:28;10.60;1.00
14614;DHT22;7393;51.446;6.800;2023-02-03T13:03:05;10.60;1.00
14614;DHT22;7393;51.446;6.800;2023-02-03T13:05:40;10.60;1.00
14614;DHT22;7393;51.446;6.800;2023-02-03T13:08:15;10.60;76.30
14614;DHT22;7393;51.446;6.800;2023-02-03T13:10:47;10.70;99.90
14614;DHT22;7393;51.446;6.800;2023-02-03T13:13:22;10.60;99.90
14614;DHT22;7393;51.446;6.800;2023-02-03T13:15:52;10.60;99.90
14614;DHT22;7393;51.446;6.800;2023-02-03T13:18:24;10.70;99.90
14614;DHT22;7393;51.446;6.800;2023-02-03T13:20:53;10.60;99.90
14614;DHT22;7393;51.446;6.800;2023-02-03T13:23:21;10.60;99.90
14614;DHT22;7393;51.446;6.800;2023-02-03T13:26:05;10.60;99.90
14614;DHT22;7393;51.446;6.800;2023-02-03T13:29:00;10.60;99.90
14614;DHT22;7393;51.446;6.800;2023-02-03T13:31:38;10.60;99.90
14614;DHT22;7393;51.446;6.800;2023-02-03T13:34:35;10.70;98.60
14614;DHT22;7393;51.446;6.800;2023-02-03T13:37:26;10.70;1.00
14614;DHT22;7393;51.446;6.800;2023-02-03T13:40:15;10.70;59.60
14614;DHT22;7393;51.446;6.800;2023-02-03T13:42:50;10.70;1.50
14614;DHT22;7393;51.446;6.800;2023-02-03T13:45:24;10.70;1.00
14614;DHT22;7393;51.446;6.800;2023-02-03T13:47:53;10.70;1.00
14614;DHT22;7393;51.446;6.800;2023-02-03T13:50:22;10.70;1.00
14614;DHT22;7393;51.446;6.800;2023-02-03T13:52:56;10.70;1.00
14614;DHT22;7393;51.446;6.800;2023-02-03T13:55:29;10.70;1.00
14614;DHT22;7393;51.446;6.800;2023-02-03T13:57:58;10.70;1.00
14614;DHT22;7393;51.446;6.800;2023-02-03T14:01:03;10.70;1.00
14614;DHT22;7393;51.446;6.800;2023-02-03T14:03:43;10.70;1.00
14614;DHT22;7393;51.446;6.800;2023-02-03T14:09:37;10.70;1.00
14614;DHT22;7393;51.446;6.800;2023-02-03T14:12:32;10.80;1.00
14614;DHT22;7393;51.446;6.800;2023-02-03T14:15:16;10.70;1.00
14614;DHT22;7393;51.446;6.800;2023-02-03T14:17:54;10.70;1.00
14614;DHT22;7393;51.446;6.800;2023-02-03T14:23:47;10.70;1.00
14614;DHT22;7393;51.446;6.800;2023-02-03T14:26:21;10.70;17.90
14614;DHT22;7393;51.446;6.800;2023-02-03T14:28:50;10.40;1.00
14614;DHT22;7393;51.446;6.800;2023-02-03T14:31:19;10.30;99.90
14614;DHT22;7393;51.446;6.800;2023-02-03T14:34:02;10.10;99.90
14614;DHT22;7393;51.446;6.800;2023-02-03T14:42:48;9.70;1.00
14614;DHT22;7393;51.446;6.800;2023-02-03T14:45:32;9.70;99.90
14614;DHT22;7393;51.446;6.800;2023-02-03T14:48:13;9.70;1.00
14614;DHT22;7393;51.446;6.800;2023-02-03T14:50:54;9.70;1.00
14614;DHT22;7393;51.446;6.800;2023-02-03T14:53:39;9.70;99.90
14614;DHT22;7393;51.446;6.800;2023-02-03T14:56:19;9.70;1.00
14614;DHT22;7393;51.446;6.800;2023-02-03T14:58:53;9.70;99.90
14614;DHT22;7393;51.446;6.800;2023-02-03T15:01:24;9.70;99.90
14614;DHT22;7393;51.446;6.800;2023-02-03T15:04:22;9.70;99.90
14614;DHT22;7393;51.446;6.800;2023-02-03T15:06:51;9.70;99.90
14614;DHT22;7393;51.446;6.800;2023-02-03T15:09:23;9.70;1.00
14614;DHT22;7393;51.446;6.800;2023-02-03T15:11:52;9.60;1.00
14614;DHT22;7393;51.446;6.800;2023-02-03T15:14:20;9.60;1.00
14614;DHT22;7393;51.446;6.800;2023-02-03T15:16:55;9.70;99.90
14614;DHT22;7393;51.446;6.800;2023-02-03T15:19:26;9.70;99.90
14614;DHT22;7393;51.446;6.800;2023-02-03T15:21:53;9.70;99.90
14614;DHT22;7393;51.446;6.800;2023-02-03T15:24:21;9.70;99.90
14614;DHT22;7393;51.446;6.800;2023-02-03T15:26:51;9.70;99.90
14614;DHT22;7393;51.446;6.800;2023-02-03T15:29:21;9.70;99.90
14614;DHT22;7393;51.446;6.800;2023-02-03T15:31:53;9.70;99.90
14614;DHT22;7393;51.446;6.800;2023-02-03T15:34:27;9.70;99.90
14614;DHT22;7393;51.446;6.800;2023-02-03T15:36:59;9.70;99.90
14614;DHT22;7393;51.446;6.800;2023-02-03T15:39:35;9.70;99.90
14614;DHT22;7393;51.446;6.800;2023-02-03T15:42:04;9.70;99.90
14614;DHT22;7393;51.446;6.800;2023-02-03T15:44:35;9.70;99.90
14614;DHT22;7393;51.446;6.800;2023-02-03T15:47:18;9.80;99.90
14614;DHT22;7393;51.446;6.800;2023-02-03T15:49:56;9.70;99.90
14614;DHT22;7393;51.446;6.800;2023-02-03T15:52:26;9.70;99.90
14614;DHT22;7393;51.446;6.800;2023-02-03T15:55:00;9.70;99.90
14614;DHT22;7393;51.446;6.800;2023-02-03T15:57:31;9.70;99.90
14614;DHT22;7393;51.446;6.800;2023-02-03T16:00:08;9.70;99.90
14614;DHT22;7393;51.446;6.800;2023-02-03T16:02:40;9.60;99.90
14614;DHT22;7393;51.446;6.800;2023-02-03T16:05:20;9.70;99.90
14614;DHT22;7393;51.446;6.800;2023-02-03T16:07:48;9.70;99.90
14614;DHT22;7393;51.446;6.800;2023-02-03T16:10:26;9.70;99.90
14614;DHT22;7393;51.446;6.800;2023-02-03T16:13:13;9.70;99.90
14614;DHT22;7393;51.446;6.800;2023-02-03T16:15:43;9.80;99.90
14614;DHT22;7393;51.446;6.800;2023-02-03T16:18:15;9.80;99.90
14614;DHT22;7393;51.446;6.800;2023-02-03T16:20:50;9.70;99.90
14614;DHT22;7393;51.446;6.800;2023-02-03T16:23:19;9.80;99.90
14614;DHT22;7393;51.446;6.800;2023-02-03T16:26:14;9.80;99.90
14614;DHT22;7393;51.446;6.800;2023-02-03T16:28:42;9.80;99.90
14614;DHT22;7393;51.446;6.800;2023-02-03T16:31:27;9.70;99.90
14614;DHT22;7393;51.446;6.800;2023-02-03T16:34:13;9.70;99.90
14614;DHT22;7393;51.446;6.800;2023-02-03T16:36:59;9.70;99.90
14614;DHT22;7393;51.446;6.800;2023-02-03T16:39:44;9.70;99.90
14614;DHT22;7393;51.446;6.800;2023-02-03T16:42:36;9.60;99.90
14614;DHT22;7393;51.446;6.800;2023-02-03T16:45:21;9.60;99.90
14614;DHT22;7393;51.446;6.800;2023-02-03T16:48:09;9.70;99.90